createdAt,value
2023-01-06T00:01:20.733Z,101769.00
2023-01-06T00:03:52.221Z,101766.00
2023-01-06T00:06:20.369Z,101773.00
2023-01-06T00:08:46.982Z,101759.00
2023-01-06T00:11:14.938Z,101746.00
2023-01-06T00:13:41.923Z,101747.00
2023-01-06T00:16:11.537Z,101743.00
2023-01-06T00:18:38.480Z,101743.00
2023-01-06T00:21:06.194Z,101728.00
2023-01-06T00:23:34.102Z,101732.00
2023-01-06T00:26:01.292Z,101738.00
2023-01-06T00:28:28.002Z,101731.00
2023-01-06T00:30:54.679Z,101738.00
2023-01-06T00:33:21.804Z,101731.00
2023-01-06T00:35:48.439Z,101731.00
2023-01-06T00:38:15.233Z,101728.00
2023-01-06T00:40:41.899Z,101724.00
2023-01-06T00:43:08.759Z,101723.00
2023-01-06T00:45:35.324Z,101724.00
2023-01-06T00:48:01.955Z,101723.00
2023-01-06T00:50:28.591Z,101716.00
2023-01-06T00:52:55.209Z,101719.00
2023-01-06T00:55:21.895Z,101712.00
2023-01-06T00:57:52.629Z,101701.00
2023-01-06T01:00:19.935Z,101697.00
2023-01-06T01:02:46.645Z,101686.00
2023-01-06T01:05:13.497Z,101695.00
2023-01-06T01:07:41.172Z,101692.00
2023-01-06T01:10:08.609Z,101678.00
2023-01-06T01:12:35.262Z,101683.00
2023-01-06T01:15:01.948Z,101679.00
2023-01-06T01:17:30.162Z,101667.00
2023-01-06T01:19:58.148Z,101667.00
2023-01-06T01:22:26.772Z,101665.00
2023-01-06T01:24:53.467Z,101650.00
2023-01-06T01:27:20.319Z,101640.00
2023-01-06T01:29:46.934Z,101643.00
2023-01-06T01:32:13.527Z,101642.00
2023-01-06T01:34:40.165Z,101638.00
2023-01-06T01:37:06.912Z,101649.00
2023-01-06T01:39:33.603Z,101645.00
2023-01-06T01:42:00.754Z,101648.00
2023-01-06T01:45:17.002Z,101637.00
2023-01-06T01:47:48.515Z,101631.00
2023-01-06T01:50:30.088Z,101631.00
2023-01-06T01:53:03.043Z,101634.00
2023-01-06T01:55:30.951Z,101645.00
2023-01-06T01:58:02.944Z,101630.00
2023-01-06T02:00:29.560Z,101630.00
2023-01-06T02:02:56.880Z,101624.00
2023-01-06T02:05:25.815Z,101627.00
2023-01-06T02:07:53.271Z,101624.00
2023-01-06T02:10:22.544Z,101617.00
2023-01-06T02:12:52.618Z,101616.00
2023-01-06T02:15:27.242Z,101609.00
2023-01-06T02:18:27.057Z,101627.00
2023-01-06T02:21:11.826Z,101614.00
2023-01-06T02:24:31.838Z,101618.00
2023-01-06T02:27:35.387Z,101604.00
2023-01-06T02:30:13.978Z,101613.00
2023-01-06T02:33:14.188Z,101607.00
2023-01-06T02:36:08.674Z,101607.00
2023-01-06T02:38:45.497Z,101599.00
2023-01-06T02:41:24.156Z,101593.00
2023-01-06T02:44:11.222Z,101600.00
2023-01-06T02:46:52.788Z,101591.00
2023-01-06T02:49:36.714Z,101599.00
2023-01-06T02:52:12.316Z,101589.00
2023-01-06T02:54:49.890Z,101585.00
2023-01-06T02:57:28.778Z,101585.00
2023-01-06T03:00:14.114Z,101579.00
2023-01-06T03:02:44.483Z,101569.00
2023-01-06T03:05:16.191Z,101569.00
2023-01-06T03:07:45.898Z,101557.00
2023-01-06T03:10:14.854Z,101547.00
2023-01-06T03:12:49.653Z,101551.00
2023-01-06T03:15:16.403Z,101553.00
2023-01-06T03:17:43.358Z,101546.00
2023-01-06T03:20:11.225Z,101541.00
2023-01-06T03:22:39.085Z,101545.00
2023-01-06T03:25:07.725Z,101546.00
2023-01-06T03:27:34.680Z,101528.00
2023-01-06T03:30:02.911Z,101528.00
2023-01-06T03:32:48.365Z,101535.00
2023-01-06T03:35:56.056Z,101534.00
2023-01-06T03:38:45.236Z,101519.00
2023-01-06T03:41:45.091Z,101501.00
2023-01-06T03:44:19.305Z,101516.00
2023-01-06T03:46:53.490Z,101521.00
2023-01-06T03:49:31.500Z,101526.00
2023-01-06T03:52:04.618Z,101525.00
2023-01-06T03:54:56.562Z,101526.00
2023-01-06T03:57:32.733Z,101524.00
2023-01-06T04:00:06.382Z,101546.00
2023-01-06T04:02:34.862Z,101530.00
2023-01-06T04:05:18.077Z,101531.00
2023-01-06T04:07:45.273Z,101529.00
2023-01-06T04:10:13.789Z,101531.00
2023-01-06T04:12:41.110Z,101520.00
2023-01-06T04:15:13.387Z,101531.00
2023-01-06T04:17:41.342Z,101531.00
2023-01-06T04:20:10.795Z,101525.00
2023-01-06T04:22:37.395Z,101531.00
2023-01-06T04:25:05.101Z,101528.00
2023-01-06T04:27:31.746Z,101525.00
2023-01-06T04:29:58.564Z,101530.00
2023-01-06T04:32:25.275Z,101526.00
2023-01-06T04:34:51.863Z,101534.00
2023-01-06T04:37:20.634Z,101519.00
2023-01-06T04:39:48.308Z,101528.00
2023-01-06T04:42:15.368Z,101523.00
2023-01-06T04:44:42.644Z,101521.00
2023-01-06T04:47:10.843Z,101518.00
2023-01-06T04:49:37.612Z,101520.00
2023-01-06T04:52:05.573Z,101517.00
2023-01-06T04:54:32.169Z,101520.00
2023-01-06T04:56:58.763Z,101528.00
2023-01-06T04:59:25.359Z,101517.00
2023-01-06T05:01:52.159Z,101506.00
2023-01-06T05:04:19.069Z,101515.00
2023-01-06T05:06:45.898Z,101512.00
2023-01-06T05:09:12.566Z,101515.00
2023-01-06T05:11:39.167Z,101517.00
2023-01-06T05:14:05.788Z,101520.00
2023-01-06T05:16:34.624Z,101517.00
2023-01-06T05:19:01.890Z,101512.00
2023-01-06T05:21:32.500Z,101514.00
2023-01-06T05:24:00.015Z,101516.00
2023-01-06T05:26:27.820Z,101509.00
2023-01-06T05:28:55.507Z,101515.00
2023-01-06T05:31:22.683Z,101519.00
2023-01-06T05:33:49.391Z,101523.00
2023-01-06T05:36:17.945Z,101525.00
2023-01-06T05:38:45.760Z,101525.00
2023-01-06T05:41:12.702Z,101538.00
2023-01-06T05:43:39.316Z,101527.00
2023-01-06T05:46:10.798Z,101533.00
2023-01-06T05:48:38.353Z,101537.00
2023-01-06T05:51:11.427Z,101539.00
2023-01-06T05:53:40.811Z,101548.00
2023-01-06T05:56:09.554Z,101565.00
2023-01-06T05:58:37.201Z,101575.00
2023-01-06T06:01:04.756Z,101575.00
2023-01-06T06:03:32.528Z,101565.00
2023-01-06T06:06:04.388Z,101572.00
2023-01-06T06:08:31.077Z,101574.00
2023-01-06T06:11:03.025Z,101576.00
2023-01-06T06:13:29.745Z,101583.00
2023-01-06T06:16:06.305Z,101580.00
2023-01-06T06:18:33.002Z,101584.00
2023-01-06T06:21:03.796Z,101587.00
2023-01-06T06:23:31.801Z,101588.00
2023-01-06T06:25:58.436Z,101589.00
2023-01-06T06:28:25.142Z,101585.00
2023-01-06T06:30:52.853Z,101591.00
2023-01-06T06:33:20.885Z,101590.00
2023-01-06T06:35:57.635Z,101599.00
2023-01-06T06:38:24.257Z,101613.00
2023-01-06T06:40:50.935Z,101605.00
2023-01-06T06:43:17.626Z,101618.00
2023-01-06T06:45:45.167Z,101623.00
2023-01-06T06:48:11.843Z,101624.00
2023-01-06T06:50:38.489Z,101624.00
2023-01-06T06:53:05.255Z,101633.00
2023-01-06T06:55:32.813Z,101637.00
2023-01-06T06:57:59.585Z,101649.00
2023-01-06T07:00:26.352Z,101651.00
2023-01-06T07:02:53.065Z,101655.00
2023-01-06T07:05:19.720Z,101653.00
2023-01-06T07:07:46.350Z,101654.00
2023-01-06T07:10:15.724Z,101658.00
2023-01-06T07:12:42.377Z,101653.00
2023-01-06T07:15:09.713Z,101648.00
2023-01-06T07:17:36.331Z,101648.00
2023-01-06T07:20:03.261Z,101669.00
2023-01-06T07:22:29.875Z,101676.00
2023-01-06T07:24:56.497Z,101683.00
2023-01-06T07:27:23.104Z,101680.00
2023-01-06T07:29:49.724Z,101684.00
2023-01-06T07:32:16.400Z,101683.00
2023-01-06T07:34:43.006Z,101688.00
2023-01-06T07:37:09.651Z,101690.00
2023-01-06T07:39:36.263Z,101689.00
2023-01-06T07:42:02.883Z,101698.00
2023-01-06T07:44:29.482Z,101700.00
2023-01-06T07:46:56.082Z,101697.00
2023-01-06T07:49:22.744Z,101691.00
2023-01-06T07:51:49.315Z,101700.00
2023-01-06T07:54:15.950Z,101709.00
2023-01-06T07:56:45.679Z,101709.00
2023-01-06T07:59:12.354Z,101709.00
2023-01-06T08:01:39.077Z,101694.00
2023-01-06T08:04:05.747Z,101698.00
2023-01-06T08:06:32.363Z,101702.00
2023-01-06T08:08:59.007Z,101716.00
2023-01-06T08:11:25.699Z,101724.00
2023-01-06T08:13:52.331Z,101727.00
2023-01-06T08:16:18.937Z,101730.00
2023-01-06T08:18:45.612Z,101729.00
2023-01-06T08:21:12.710Z,101738.00
2023-01-06T08:23:39.551Z,101735.00
2023-01-06T08:26:07.480Z,101737.00
2023-01-06T08:28:34.788Z,101737.00
2023-01-06T08:31:02.103Z,101743.00
2023-01-06T08:33:29.158Z,101739.00
2023-01-06T08:36:03.784Z,101745.00
2023-01-06T08:38:31.388Z,101746.00
2023-01-06T08:40:58.771Z,101747.00
2023-01-06T08:43:26.171Z,101750.00
2023-01-06T08:45:53.462Z,101747.00
2023-01-06T08:48:20.162Z,101750.00
2023-01-06T08:50:46.836Z,101758.00
2023-01-06T08:53:13.496Z,101759.00
2023-01-06T08:55:41.250Z,101761.00
2023-01-06T08:58:09.133Z,101754.00
2023-01-06T09:00:40.330Z,101764.00
2023-01-06T09:03:07.207Z,101770.00
2023-01-06T09:05:33.836Z,101774.00
2023-01-06T09:08:00.586Z,101777.00
2023-01-06T09:10:27.236Z,101775.00
2023-01-06T09:12:53.849Z,101782.00
2023-01-06T09:15:20.460Z,101774.00
2023-01-06T09:17:47.114Z,101777.00
2023-01-06T09:20:13.773Z,101780.00
2023-01-06T09:22:40.562Z,101787.00
2023-01-06T09:25:07.608Z,101787.00
2023-01-06T09:27:34.218Z,101795.00
2023-01-06T09:30:00.839Z,101799.00
2023-01-06T09:32:27.467Z,101793.00
2023-01-06T09:34:54.082Z,101799.00
2023-01-06T09:37:20.721Z,101809.00
2023-01-06T09:39:47.408Z,101811.00
2023-01-06T09:42:32.293Z,101817.00
2023-01-06T09:45:01.706Z,101817.00
2023-01-06T09:47:42.968Z,101823.00
2023-01-06T09:50:15.054Z,101812.00
2023-01-06T09:52:46.886Z,101821.00
2023-01-06T09:55:24.433Z,101829.00
2023-01-06T09:58:05.893Z,101827.00
2023-01-06T10:00:47.392Z,101834.00
2023-01-06T10:03:22.555Z,101828.00
2023-01-06T10:05:55.286Z,101829.00
2023-01-06T10:08:48.217Z,101826.00
2023-01-06T10:11:33.300Z,101834.00
2023-01-06T10:14:19.264Z,101837.00
2023-01-06T10:16:58.056Z,101827.00
2023-01-06T10:19:46.090Z,101831.00
2023-01-06T10:22:28.979Z,101831.00
2023-01-06T10:25:15.230Z,101829.00
2023-01-06T10:27:46.425Z,101821.00
2023-01-06T10:30:34.017Z,101825.00
2023-01-06T10:33:04.876Z,101827.00
2023-01-06T10:35:32.967Z,101821.00
2023-01-06T10:38:04.549Z,101818.00
2023-01-06T10:40:32.323Z,101820.00
2023-01-06T10:43:06.606Z,101817.00
2023-01-06T10:45:44.684Z,101822.00
2023-01-06T10:48:25.611Z,101813.00
2023-01-06T10:50:52.242Z,101796.00
2023-01-06T10:53:18.987Z,101789.00
2023-01-06T10:55:57.992Z,101790.00
2023-01-06T10:58:34.765Z,101793.00
2023-01-06T11:01:12.222Z,101799.00
2023-01-06T11:03:42.905Z,101802.00
2023-01-06T11:06:23.412Z,101804.00
2023-01-06T11:08:50.049Z,101804.00
2023-01-06T11:11:28.170Z,101798.00
2023-01-06T11:14:02.800Z,101799.00
2023-01-06T11:16:33.567Z,101804.00
2023-01-06T11:19:03.477Z,101789.00
2023-01-06T11:21:41.896Z,101787.00
2023-01-06T11:24:18.885Z,101783.00
2023-01-06T11:26:52.567Z,101778.00
2023-01-06T11:29:27.099Z,101760.00
2023-01-06T11:31:54.623Z,101772.00
2023-01-06T11:34:24.595Z,101771.00
2023-01-06T11:36:52.414Z,101772.00
2023-01-06T11:39:27.857Z,101768.00
2023-01-06T11:41:56.447Z,101762.00
2023-01-06T11:44:30.201Z,101777.00
2023-01-06T11:47:01.582Z,101778.00
2023-01-06T11:49:56.360Z,101770.00
2023-01-06T11:52:27.149Z,101780.00
2023-01-06T11:55:08.855Z,101770.00
2023-01-06T11:58:01.059Z,101771.00
2023-01-06T12:00:46.373Z,101777.00
2023-01-06T12:03:35.300Z,101761.00
2023-01-06T12:06:14.005Z,101766.00
2023-01-06T12:08:53.857Z,101763.00
2023-01-06T12:11:48.459Z,101762.00
2023-01-06T12:14:28.641Z,101755.00
2023-01-06T12:16:59.018Z,101751.00
2023-01-06T12:19:36.690Z,101749.00
2023-01-06T12:22:04.031Z,101758.00
2023-01-06T12:24:33.510Z,101747.00
2023-01-06T12:27:05.044Z,101753.00
2023-01-06T12:29:33.468Z,101750.00
2023-01-06T12:32:21.274Z,101748.00
2023-01-06T12:34:51.802Z,101746.00
2023-01-06T12:37:40.116Z,101746.00
2023-01-06T12:40:23.458Z,101742.00
2023-01-06T12:43:01.219Z,101737.00
2023-01-06T12:45:46.700Z,101735.00
2023-01-06T12:48:44.150Z,101732.00
2023-01-06T12:51:24.139Z,101717.00
2023-01-06T12:54:03.235Z,101712.00
2023-01-06T12:57:00.350Z,101715.00
2023-01-06T12:59:33.001Z,101707.00
2023-01-06T13:02:08.465Z,101701.00
2023-01-06T13:04:47.260Z,101697.00
2023-01-06T13:07:32.264Z,101697.00
2023-01-06T13:10:20.086Z,101698.00
2023-01-06T13:13:24.965Z,101703.00
2023-01-06T13:15:54.219Z,101708.00
2023-01-06T13:18:32.068Z,101711.00
2023-01-06T13:21:01.629Z,101712.00
2023-01-06T13:23:44.177Z,101710.00
2023-01-06T13:26:41.284Z,101706.00
2023-01-06T13:29:33.504Z,101702.00
2023-01-06T13:32:30.864Z,101708.00
2023-01-06T13:35:27.507Z,101709.00
2023-01-06T13:38:34.085Z,101702.00
2023-01-06T13:41:03.764Z,101700.00
2023-01-06T13:43:33.404Z,101695.00
2023-01-06T13:46:13.970Z,101694.00
2023-01-06T13:48:50.491Z,101691.00
2023-01-06T13:51:21.317Z,101692.00
2023-01-06T13:53:50.288Z,101679.00
2023-01-06T13:56:16.898Z,101680.00
2023-01-06T13:58:44.961Z,101676.00
2023-01-06T14:01:20.876Z,101675.00
2023-01-06T14:03:49.965Z,101658.00
2023-01-06T14:06:22.655Z,101663.00
2023-01-06T14:09:00.486Z,101665.00
2023-01-06T14:11:33.813Z,101664.00
2023-01-06T14:14:05.964Z,101668.00
2023-01-06T14:16:42.933Z,101654.00
2023-01-06T14:19:30.120Z,101655.00
2023-01-06T14:22:15.187Z,101661.00
2023-01-06T14:24:48.625Z,101665.00
2023-01-06T14:27:15.520Z,101668.00
2023-01-06T14:29:42.163Z,101658.00
2023-01-06T14:32:11.244Z,101658.00
2023-01-06T14:34:49.614Z,101668.00
2023-01-06T14:37:17.654Z,101663.00
2023-01-06T14:39:49.857Z,101664.00
2023-01-06T14:42:21.833Z,101659.00
2023-01-06T14:44:52.064Z,101652.00
2023-01-06T14:47:29.227Z,101652.00
2023-01-06T14:50:34.828Z,101656.00
2023-01-06T14:53:36.561Z,101652.00
2023-01-06T14:56:04.928Z,101656.00
2023-01-06T14:58:32.855Z,101654.00
2023-01-06T15:01:00.258Z,101649.00
2023-01-06T15:03:28.663Z,101646.00
2023-01-06T15:06:20.945Z,101646.00
2023-01-06T15:08:47.873Z,101646.00
2023-01-06T15:11:28.166Z,101644.00
2023-01-06T15:13:55.244Z,101651.00
2023-01-06T15:16:40.147Z,101651.00
2023-01-06T15:19:14.549Z,101647.00
2023-01-06T15:21:43.009Z,101644.00
2023-01-06T15:24:31.709Z,101642.00
2023-01-06T15:27:22.045Z,101637.00
2023-01-06T15:29:57.045Z,101633.00
2023-01-06T15:32:26.437Z,101626.00
2023-01-06T15:34:56.904Z,101621.00
2023-01-06T15:37:31.124Z,101623.00
2023-01-06T15:39:58.151Z,101632.00
2023-01-06T15:42:26.380Z,101637.00
2023-01-06T15:45:00.790Z,101629.00
2023-01-06T15:47:35.115Z,101638.00
2023-01-06T15:50:16.606Z,101619.00
2023-01-06T15:53:05.669Z,101630.00
2023-01-06T15:55:36.211Z,101630.00
2023-01-06T15:58:23.215Z,101630.00
2023-01-06T16:01:00.771Z,101632.00
2023-01-06T16:03:30.385Z,101635.00
2023-01-06T16:06:30.104Z,101638.00
2023-01-06T16:09:25.876Z,101634.00
2023-01-06T16:12:04.541Z,101624.00
2023-01-06T16:14:36.925Z,101621.00
2023-01-06T16:17:31.902Z,101623.00
2023-01-06T16:20:05.596Z,101626.00
2023-01-06T16:22:40.795Z,101617.00
2023-01-06T16:25:27.296Z,101621.00
2023-01-06T16:27:57.062Z,101616.00
2023-01-06T16:30:26.959Z,101619.00
2023-01-06T16:33:03.404Z,101626.00
2023-01-06T16:35:32.910Z,101629.00
2023-01-06T16:38:00.041Z,101620.00
2023-01-06T16:40:28.600Z,101620.00
2023-01-06T16:43:00.718Z,101615.00
2023-01-06T16:45:40.848Z,101605.00
2023-01-06T16:48:07.633Z,101599.00
2023-01-06T16:50:39.886Z,101609.00
2023-01-06T16:53:06.499Z,101604.00
2023-01-06T16:55:33.227Z,101602.00
2023-01-06T16:58:00.812Z,101599.00
2023-01-06T17:00:28.427Z,101608.00
2023-01-06T17:02:55.281Z,101615.00
2023-01-06T17:05:29.618Z,101620.00
2023-01-06T17:08:01.460Z,101606.00
2023-01-06T17:10:28.415Z,101614.00
2023-01-06T17:13:22.265Z,101623.00
2023-01-06T17:15:57.306Z,101620.00
2023-01-06T17:18:31.667Z,101627.00
2023-01-06T17:21:00.420Z,101627.00
2023-01-06T17:23:27.203Z,101632.00
2023-01-06T17:26:01.696Z,101633.00
2023-01-06T17:28:31.186Z,101639.00
2023-01-06T17:30:58.948Z,101631.00
2023-01-06T17:33:28.033Z,101622.00
2023-01-06T17:35:56.306Z,101617.00
2023-01-06T17:38:25.213Z,101617.00
2023-01-06T17:40:51.999Z,101619.00
2023-01-06T17:43:38.973Z,101614.00
2023-01-06T17:46:22.993Z,101607.00
2023-01-06T17:48:57.284Z,101620.00
2023-01-06T17:51:23.971Z,101615.00
2023-01-06T17:54:09.124Z,101623.00
2023-01-06T17:56:35.762Z,101623.00
2023-01-06T17:59:13.662Z,101613.00
2023-01-06T18:01:40.413Z,101622.00
2023-01-06T18:04:12.320Z,101623.00
2023-01-06T18:06:42.846Z,101612.00
2023-01-06T18:09:19.165Z,101626.00
2023-01-06T18:11:51.376Z,101637.00
2023-01-06T18:14:42.575Z,101632.00
2023-01-06T18:17:21.023Z,101640.00
2023-01-06T18:19:47.721Z,101639.00
2023-01-06T18:22:24.870Z,101634.00
2023-01-06T18:24:55.145Z,101637.00
2023-01-06T18:27:34.673Z,101629.00
2023-01-06T18:30:22.879Z,101628.00
2023-01-06T18:32:51.379Z,101621.00
2023-01-06T18:35:28.692Z,101619.00
2023-01-06T18:38:02.478Z,101618.00
2023-01-06T18:40:30.759Z,101617.00
2023-01-06T18:43:06.226Z,101618.00
2023-01-06T18:45:37.922Z,101618.00
2023-01-06T18:48:07.513Z,101621.00
2023-01-06T18:50:42.953Z,101630.00
2023-01-06T18:53:22.494Z,101619.00
2023-01-06T18:55:55.272Z,101633.00
2023-01-06T18:58:39.034Z,101622.00
2023-01-06T19:01:13.206Z,101624.00
2023-01-06T19:03:56.328Z,101630.00
2023-01-06T19:06:28.567Z,101622.00
2023-01-06T19:08:56.197Z,101625.00
2023-01-06T19:11:25.058Z,101622.00
2023-01-06T19:13:59.211Z,101631.00
2023-01-06T19:16:43.495Z,101635.00
2023-01-06T19:19:10.211Z,101640.00
2023-01-06T19:21:38.498Z,101634.00
2023-01-06T19:24:29.748Z,101635.00
2023-01-06T19:26:58.592Z,101639.00
2023-01-06T19:29:35.251Z,101635.00
2023-01-06T19:32:13.943Z,101629.00
2023-01-06T19:34:41.001Z,101627.00
2023-01-06T19:37:18.316Z,101626.00
2023-01-06T19:39:48.743Z,101624.00
2023-01-06T19:42:24.505Z,101619.00
2023-01-06T19:44:54.417Z,101620.00
2023-01-06T19:47:31.724Z,101620.00
2023-01-06T19:50:06.096Z,101622.00
2023-01-06T19:52:38.359Z,101616.00
2023-01-06T19:55:16.746Z,101614.00
2023-01-06T19:57:49.737Z,101613.00
2023-01-06T20:00:47.911Z,101608.00
2023-01-06T20:03:36.085Z,101613.00
2023-01-06T20:06:04.196Z,101601.00
2023-01-06T20:08:30.864Z,101603.00
2023-01-06T20:10:57.533Z,101606.00
2023-01-06T20:13:24.187Z,101604.00
2023-01-06T20:15:50.904Z,101606.00
2023-01-06T20:18:17.529Z,101601.00
2023-01-06T20:20:44.258Z,101602.00
2023-01-06T20:23:11.388Z,101594.00
2023-01-06T20:25:38.089Z,101589.00
2023-01-06T20:28:04.870Z,101594.00
2023-01-06T20:30:31.498Z,101581.00
2023-01-06T20:32:58.176Z,101584.00
2023-01-06T20:35:24.874Z,101588.00
2023-01-06T20:37:51.501Z,101583.00
2023-01-06T20:40:18.433Z,101583.00
2023-01-06T20:42:45.455Z,101582.00
2023-01-06T20:45:12.608Z,101585.00
2023-01-06T20:47:39.395Z,101580.00
2023-01-06T20:50:07.484Z,101586.00
2023-01-06T20:52:34.806Z,101588.00
2023-01-06T20:55:01.510Z,101580.00
2023-01-06T20:57:28.178Z,101578.00
2023-01-06T20:59:54.808Z,101581.00
2023-01-06T21:02:21.501Z,101578.00
2023-01-06T21:04:48.244Z,101570.00
2023-01-06T21:07:14.941Z,101569.00
2023-01-06T21:09:41.546Z,101567.00
2023-01-06T21:12:08.314Z,101569.00
2023-01-06T21:14:35.437Z,101576.00
2023-01-06T21:17:03.827Z,101563.00
2023-01-06T21:19:30.642Z,101563.00
2023-01-06T21:21:57.237Z,101564.00
2023-01-06T21:24:23.936Z,101553.00
2023-01-06T21:26:50.705Z,101555.00
2023-01-06T21:29:17.274Z,101558.00
2023-01-06T21:31:43.993Z,101553.00
2023-01-06T21:34:10.773Z,101546.00
2023-01-06T21:36:37.415Z,101546.00
2023-01-06T21:39:07.207Z,101548.00
2023-01-06T21:41:51.885Z,101548.00
2023-01-06T21:44:18.489Z,101542.00
2023-01-06T21:46:45.061Z,101544.00
2023-01-06T21:49:11.673Z,101541.00
2023-01-06T21:51:39.472Z,101544.00
2023-01-06T21:54:06.594Z,101538.00
2023-01-06T21:56:34.965Z,101546.00
2023-01-06T21:59:01.805Z,101542.00
2023-01-06T22:01:28.483Z,101538.00
2023-01-06T22:03:56.073Z,101537.00
2023-01-06T22:06:24.244Z,101531.00
2023-01-06T22:08:53.024Z,101527.00
2023-01-06T22:11:19.916Z,101517.00
2023-01-06T22:13:46.884Z,101521.00
2023-01-06T22:16:13.860Z,101526.00
2023-01-06T22:18:40.593Z,101529.00
2023-01-06T22:21:07.499Z,101523.00
2023-01-06T22:23:35.420Z,101528.00
2023-01-06T22:26:02.093Z,101525.00
2023-01-06T22:28:28.687Z,101525.00
2023-01-06T22:30:55.718Z,101536.00
2023-01-06T22:33:24.007Z,101534.00
2023-01-06T22:35:50.714Z,101533.00
2023-01-06T22:38:17.383Z,101539.00
2023-01-06T22:40:44.009Z,101526.00
2023-01-06T22:43:10.641Z,101536.00
2023-01-06T22:45:37.352Z,101526.00
2023-01-06T22:48:04.038Z,101533.00
2023-01-06T22:50:30.659Z,101518.00
2023-01-06T22:52:57.349Z,101498.00
2023-01-06T22:55:24.327Z,101505.00
2023-01-06T22:57:50.934Z,101496.00
2023-01-06T23:00:19.018Z,101507.00
2023-01-06T23:02:45.808Z,101506.00
2023-01-06T23:05:12.539Z,101514.00
2023-01-06T23:07:41.389Z,101525.00
2023-01-06T23:10:09.903Z,101524.00
2023-01-06T23:12:37.966Z,101525.00
2023-01-06T23:15:05.080Z,101523.00
2023-01-06T23:17:31.774Z,101520.00
2023-01-06T23:19:58.442Z,101520.00
2023-01-06T23:22:25.077Z,101511.00
2023-01-06T23:24:51.879Z,101512.00
2023-01-06T23:27:18.653Z,101512.00
2023-01-06T23:29:46.067Z,101525.00
2023-01-06T23:32:12.815Z,101527.00
2023-01-06T23:34:39.482Z,101524.00
2023-01-06T23:37:06.416Z,101521.00
2023-01-06T23:39:33.049Z,101514.00
2023-01-06T23:41:59.617Z,101507.00
2023-01-06T23:44:26.328Z,101502.00
2023-01-06T23:46:52.925Z,101495.00
2023-01-06T23:49:19.591Z,101491.00
2023-01-06T23:51:46.409Z,101483.00
2023-01-06T23:54:13.922Z,101483.00
2023-01-06T23:56:41.083Z,101484.00
2023-01-06T23:59:10.533Z,101480.00
